Time,TemperatureF,DewpointF,PressureIn,WindDirection,WindDirectionDegrees,WindSpeedMPH,WindSpeedGustMPH,Humidity,HourlyPrecipIn,Conditions,Clouds,dailyrainin,SoftwareType,DateUTC
2013-07-16 00:14:00,73.6,71.0,30.29,East,98,2.0,-999.0,91,-99.99,,,0.00,weatherlink.com 1.10,2013-07-16 05:14:00,
2013-07-16 00:29:00,73.5,71.0,30.29,East,84,0.0,-999.0,92,-99.99,,,0.00,weatherlink.com 1.10,2013-07-16 05:29:00,
2013-07-16 00:44:00,73.6,71.0,30.29,SE,138,0.0,-999.0,92,-99.99,,,0.00,weatherlink.com 1.10,2013-07-16 05:44:00,
2013-07-16 00:59:00,73.6,71.0,30.28,ESE,116,0.0,-999.0,92,-99.99,,,0.00,weatherlink.com 1.10,2013-07-16 05:59:00,
2013-07-16 01:14:00,73.7,71.0,30.28,ESE,115,0.0,-999.0,92,-99.99,,,0.00,weatherlink.com 1.10,2013-07-16 06:14:00,
2013-07-16 01:29:00,73.8,71.0,30.28,ESE,105,0.0,-999.0,92,-99.99,,,0.00,weatherlink.com 1.10,2013-07-16 06:29:00,
2013-07-16 01:44:00,73.5,71.0,30.28,ESE,108,0.0,-999.0,92,-99.99,,,0.00,weatherlink.com 1.10,2013-07-16 06:44:00,
2013-07-16 01:59:00,73.3,71.0,30.29,SE,127,0.0,-999.0,92,-99.99,,,0.00,weatherlink.com 1.10,2013-07-16 06:59:00,
2013-07-16 02:14:00,73.1,71.0,30.28,SE,132,5.0,-999.0,92,-99.99,,,0.00,weatherlink.com 1.10,2013-07-16 07:14:00,
2013-07-16 02:29:00,73.1,71.0,30.28,SE,133,0.0,-999.0,93,-99.99,,,0.00,weatherlink.com 1.10,2013-07-16 07:29:00,
2013-07-16 02:44:00,73.0,71.0,30.28,ESE,110,0.0,-999.0,93,-99.99,,,0.00,weatherlink.com 1.10,2013-07-16 07:44:00,
2013-07-16 02:59:00,73.0,71.0,30.28,SSE,155,0.0,-999.0,93,-99.99,,,0.00,weatherlink.com 1.10,2013-07-16 07:59:00,
2013-07-16 03:14:00,73.0,71.0,30.28,ENE,74,0.0,-999.0,93,-99.99,,,0.00,weatherlink.com 1.10,2013-07-16 08:14:00,
2013-07-16 03:29:00,73.1,71.0,30.28,ESE,119,0.0,-999.0,92,-99.99,,,0.00,weatherlink.com 1.10,2013-07-16 08:29:00,
2013-07-16 03:44:00,72.9,71.0,30.28,ESE,103,0.0,-999.0,92,-99.99,,,0.00,weatherlink.com 1.10,2013-07-16 08:44:00,
2013-07-16 03:59:00,72.6,71.0,30.28,East,94,0.0,-999.0,93,-99.99,,,0.00,weatherlink.com 1.10,2013-07-16 08:59:00,
2013-07-16 04:14:00,72.4,70.0,30.28,SE,144,0.0,-999.0,93,-99.99,,,0.00,weatherlink.com 1.10,2013-07-16 09:14:00,
2013-07-16 04:29:00,72.2,70.0,30.28,ESE,121,0.0,-999.0,93,-99.99,,,0.00,weatherlink.com 1.10,2013-07-16 09:29:00,
2013-07-16 04:44:00,72.1,70.0,30.29,East,95,0.0,-999.0,93,-99.99,,,0.00,weatherlink.com 1.10,2013-07-16 09:44:00,
2013-07-16 04:59:00,71.8,70.0,30.29,ESE,108,0.0,-999.0,94,-99.99,,,0.00,weatherlink.com 1.10,2013-07-16 09:59:00,
2013-07-16 05:14:00,71.7,70.0,30.29,ESE,110,0.0,-999.0,94,-99.99,,,0.00,weatherlink.com 1.10,2013-07-16 10:14:00,
2013-07-16 05:29:00,71.7,70.0,30.29,SSE,159,1.0,-999.0,94,-99.99,,,0.00,weatherlink.com 1.10,2013-07-16 10:29:00,
2013-07-16 05:44:00,71.6,70.0,30.29,ESE,123,0.0,-999.0,95,-99.99,,,0.00,weatherlink.com 1.10,2013-07-16 10:44:00,
2013-07-16 05:59:00,71.5,70.0,30.30,ESE,123,0.0,-999.0,95,-99.99,,,0.00,weatherlink.com 1.10,2013-07-16 10:59:00,
2013-07-16 06:14:00,71.7,70.0,30.30,ESE,123,4.0,-999.0,95,-99.99,,,0.00,weatherlink.com 1.10,2013-07-16 11:14:00,
2013-07-16 06:29:00,72.3,71.0,30.31,SE,128,0.0,-999.0,94,-99.99,,,0.00,weatherlink.com 1.10,2013-07-16 11:29:00,
2013-07-16 06:44:00,73.0,71.0,30.31,East,98,0.0,-999.0,93,-99.99,,,0.00,weatherlink.com 1.10,2013-07-16 11:44:00,
2013-07-16 06:59:00,73.2,71.0,30.31,SE,127,0.0,-999.0,92,-99.99,,,0.00,weatherlink.com 1.10,2013-07-16 11:59:00,
2013-07-16 07:14:00,73.0,71.0,30.31,ESE,107,1.0,-999.0,92,-99.99,,,0.00,weatherlink.com 1.10,2013-07-16 12:14:00,
2013-07-16 07:29:00,73.1,71.0,30.32,SSE,152,4.0,-999.0,92,-99.99,,,0.00,weatherlink.com 1.10,2013-07-16 12:29:00,
2013-07-16 07:44:00,74.0,71.0,30.32,SE,145,5.0,-999.0,91,-99.99,,,0.00,weatherlink.com 1.10,2013-07-16 12:44:00,
2013-07-16 07:59:00,74.6,71.0,30.33,ESE,103,0.0,-999.0,89,-99.99,,,0.00,weatherlink.com 1.10,2013-07-16 12:59:00,
2013-07-16 08:14:00,74.7,72.0,30.33,SE,132,0.0,-999.0,90,-99.99,,,0.00,weatherlink.com 1.10,2013-07-16 13:14:00,
2013-07-16 08:29:00,75.0,72.0,30.34,ESE,119,1.0,-999.0,89,-99.99,,,0.00,weatherlink.com 1.10,2013-07-16 13:29:00,
2013-07-16 08:44:00,75.6,72.0,30.34,SE,130,0.0,-999.0,89,-99.99,,,0.00,weatherlink.com 1.10,2013-07-16 13:44:00,
2013-07-16 08:59:00,76.4,72.0,30.34,ESE,107,0.0,-999.0,87,-99.99,,,0.00,weatherlink.com 1.10,2013-07-16 13:59:00,
2013-07-16 09:14:00,76.7,72.0,30.34,South,188,2.0,-999.0,86,-99.99,,,0.00,weatherlink.com 1.10,2013-07-16 14:14:00,
2013-07-16 09:29:00,78.7,73.0,30.34,SE,134,6.0,-999.0,83,-99.99,,,0.00,weatherlink.com 1.10,2013-07-16 14:29:00,
2013-07-16 09:44:00,79.1,73.0,30.34,East,94,6.0,-999.0,82,-99.99,,,0.00,weatherlink.com 1.10,2013-07-16 14:44:00,
2013-07-16 09:59:00,80.5,73.0,30.34,East,93,6.0,-999.0,79,-99.99,,,0.00,weatherlink.com 1.10,2013-07-16 14:59:00,
2013-07-16 10:14:00,80.9,73.0,30.34,East,101,6.0,-999.0,78,-99.99,,,0.00,weatherlink.com 1.10,2013-07-16 15:14:00,
2013-07-16 10:29:00,81.0,73.0,30.34,ESE,117,4.0,-999.0,76,-99.99,,,0.00,weatherlink.com 1.10,2013-07-16 15:29:00,
2013-07-16 10:44:00,81.1,73.0,30.34,SE,132,5.0,-999.0,75,-99.99,,,0.00,weatherlink.com 1.10,2013-07-16 15:44:00,
2013-07-16 10:59:00,81.3,73.0,30.34,South,171,0.0,-999.0,75,-99.99,,,0.00,weatherlink.com 1.10,2013-07-16 15:59:00,
2013-07-16 11:14:00,82.7,72.0,30.33,SE,145,5.0,-999.0,71,-99.99,,,0.00,weatherlink.com 1.10,2013-07-16 16:14:00,
2013-07-16 11:29:00,82.5,73.0,30.34,SSE,150,5.0,-999.0,74,-99.99,,,0.00,weatherlink.com 1.10,2013-07-16 16:29:00,
2013-07-16 11:44:00,83.3,73.0,30.33,East,92,0.0,-999.0,72,-99.99,,,0.00,weatherlink.com 1.10,2013-07-16 16:44:00,
2013-07-16 11:59:00,82.1,73.0,30.33,East,84,2.0,-999.0,73,-99.99,,,0.00,weatherlink.com 1.10,2013-07-16 16:59:00,
2013-07-16 12:14:00,82.5,73.0,30.33,ESE,111,2.0,-999.0,72,-99.99,,,0.00,weatherlink.com 1.10,2013-07-16 17:14:00,
2013-07-16 12:29:00,84.5,73.0,30.33,SSE,157,0.0,-999.0,68,-99.99,,,0.00,weatherlink.com 1.10,2013-07-16 17:29:00,
2013-07-16 12:44:00,84.1,72.0,30.33,SE,130,2.0,-999.0,67,-99.99,,,0.00,weatherlink.com 1.10,2013-07-16 17:44:00,
2013-07-16 12:59:00,84.2,73.0,30.32,East,96,0.0,-999.0,68,-99.99,,,0.00,weatherlink.com 1.10,2013-07-16 17:59:00,
2013-07-16 13:14:00,84.7,73.0,30.32,SSE,155,0.0,-999.0,67,-99.99,,,0.00,weatherlink.com 1.10,2013-07-16 18:14:00,
2013-07-16 13:30:00,86.2,72.0,30.31,SSE,153,0.0,-999.0,63,-99.99,,,0.00,weatherlink.com 1.10,2013-07-16 18:30:00,
2013-07-16 13:45:00,85.9,73.0,30.31,ESE,115,5.0,-999.0,65,-99.99,,,0.00,weatherlink.com 1.10,2013-07-16 18:45:00,
2013-07-16 14:00:00,85.4,71.0,30.30,ESE,113,1.0,-999.0,63,-99.99,,,0.00,weatherlink.com 1.10,2013-07-16 19:00:00,
2013-07-16 14:15:00,86.3,72.0,30.30,SSE,148,0.0,-999.0,62,-99.99,,,0.00,weatherlink.com 1.10,2013-07-16 19:15:00,
2013-07-16 14:30:00,86.9,72.0,30.30,South,170,0.0,-999.0,61,-99.99,,,0.00,weatherlink.com 1.10,2013-07-16 19:30:00,
2013-07-16 14:45:00,88.2,73.0,30.29,SE,144,2.0,-999.0,60,-99.99,,,0.00,weatherlink.com 1.10,2013-07-16 19:45:00,
2013-07-16 15:00:00,88.1,71.0,30.29,SE,138,6.0,-999.0,58,-99.99,,,0.00,weatherlink.com 1.10,2013-07-16 20:00:00,
2013-07-16 15:15:00,89.0,71.0,30.29,SSE,159,0.0,-999.0,56,-99.99,,,0.00,weatherlink.com 1.10,2013-07-16 20:15:00,
2013-07-16 15:30:00,89.1,71.0,30.29,SSE,159,0.0,-999.0,56,-99.99,,,0.00,weatherlink.com 1.10,2013-07-16 20:30:00,
2013-07-16 15:45:00,88.5,73.0,30.28,East,99,0.0,-999.0,60,-99.99,,,0.00,weatherlink.com 1.10,2013-07-16 20:45:00,
2013-07-16 16:00:00,87.7,71.0,30.28,ESE,116,4.0,-999.0,58,-99.99,,,0.00,weatherlink.com 1.10,2013-07-16 21:00:00,
2013-07-16 16:15:00,89.0,71.0,30.27,ESE,122,0.0,-999.0,56,-99.99,,,0.00,weatherlink.com 1.10,2013-07-16 21:15:00,
2013-07-16 16:30:00,88.4,71.0,30.27,East,101,0.0,-999.0,56,-99.99,,,0.00,weatherlink.com 1.10,2013-07-16 21:30:00,
2013-07-16 16:45:00,88.7,70.0,30.27,SE,129,0.0,-999.0,54,-99.99,,,0.00,weatherlink.com 1.10,2013-07-16 21:45:00,
2013-07-16 17:00:00,88.9,71.0,30.27,SE,143,0.0,-999.0,56,-99.99,,,0.00,weatherlink.com 1.10,2013-07-16 22:00:00,
2013-07-16 17:15:00,87.9,69.0,30.27,SE,142,5.0,-999.0,54,-99.99,,,0.00,weatherlink.com 1.10,2013-07-16 22:15:00,
2013-07-16 17:30:00,87.7,71.0,30.27,SE,126,0.0,-999.0,57,-99.99,,,0.00,weatherlink.com 1.10,2013-07-16 22:30:00,
2013-07-16 17:45:00,88.3,70.0,30.26,ESE,118,0.0,-999.0,55,-99.99,,,0.00,weatherlink.com 1.10,2013-07-16 22:45:00,
2013-07-16 18:00:00,88.3,71.0,30.26,East,101,0.0,-999.0,57,-99.99,,,0.00,weatherlink.com 1.10,2013-07-16 23:00:00,
2013-07-16 18:15:00,88.3,71.0,30.26,SE,133,0.0,-999.0,56,-99.99,,,0.00,weatherlink.com 1.10,2013-07-16 23:15:00,
2013-07-16 18:30:00,87.5,70.0,30.26,SSE,148,0.0,-999.0,56,-99.99,,,0.00,weatherlink.com 1.10,2013-07-16 23:30:00,
2013-07-16 18:45:00,86.8,71.0,30.26,SSE,153,0.0,-999.0,59,-99.99,,,0.00,weatherlink.com 1.10,2013-07-16 23:45:00,
2013-07-16 19:00:00,87.3,72.0,30.26,SE,144,0.0,-999.0,60,-99.99,,,0.00,weatherlink.com 1.10,2013-07-17 00:00:00,
2013-07-16 19:15:00,86.8,72.0,30.26,SE,144,0.0,-999.0,62,-99.99,,,0.00,weatherlink.com 1.10,2013-07-17 00:15:00,
2013-07-16 19:30:00,85.6,72.0,30.26,SE,144,0.0,-999.0,63,-99.99,,,0.00,weatherlink.com 1.10,2013-07-17 00:30:00,
2013-07-16 19:45:00,83.4,72.0,30.26,SE,144,0.0,-999.0,69,-99.99,,,0.00,weatherlink.com 1.10,2013-07-17 00:45:00,
2013-07-16 20:00:00,80.2,73.0,30.27,SE,144,0.0,-999.0,78,-99.99,,,0.00,weatherlink.com 1.10,2013-07-17 01:00:00,
2013-07-16 20:15:00,78.6,72.0,30.27,SE,144,0.0,-999.0,80,-99.99,,,0.00,weatherlink.com 1.10,2013-07-17 01:15:00,
2013-07-16 20:30:00,77.7,72.0,30.27,SE,144,0.0,-999.0,82,-99.99,,,0.00,weatherlink.com 1.10,2013-07-17 01:30:00,
2013-07-16 20:45:00,76.4,71.0,30.28,SE,144,0.0,-999.0,84,-99.99,,,0.00,weatherlink.com 1.10,2013-07-17 01:45:00,
2013-07-16 21:00:00,75.5,71.0,30.30,SE,144,0.0,-999.0,86,-99.99,,,0.00,weatherlink.com 1.10,2013-07-17 02:00:00,
2013-07-16 21:16:00,75.0,71.0,30.30,SE,144,0.0,-999.0,87,-99.99,,,0.00,weatherlink.com 1.10,2013-07-17 02:16:00,
2013-07-16 21:31:00,75.1,72.0,30.31,SE,144,0.0,-999.0,89,-99.99,,,0.00,weatherlink.com 1.10,2013-07-17 02:31:00,
2013-07-16 21:46:00,74.8,71.0,30.31,SE,144,0.0,-999.0,89,-99.99,,,0.00,weatherlink.com 1.10,2013-07-17 02:46:00,
2013-07-16 22:01:00,74.2,71.0,30.31,SE,144,0.0,-999.0,89,-99.99,,,0.00,weatherlink.com 1.10,2013-07-17 03:01:00,
2013-07-16 22:16:00,73.5,71.0,30.31,SE,144,0.0,-999.0,91,-99.99,,,0.00,weatherlink.com 1.10,2013-07-17 03:16:00,
2013-07-16 22:31:00,73.5,71.0,30.31,SE,144,0.0,-999.0,91,-99.99,,,0.00,weatherlink.com 1.10,2013-07-17 03:31:00,
2013-07-16 22:46:00,73.3,71.0,30.32,SE,144,0.0,-999.0,91,-99.99,,,0.00,weatherlink.com 1.10,2013-07-17 03:46:00,
2013-07-16 23:01:00,73.0,70.0,30.32,SE,144,0.0,-999.0,91,-99.99,,,0.00,weatherlink.com 1.10,2013-07-17 04:01:00,
2013-07-16 23:16:00,72.6,70.0,30.32,SE,144,0.0,-999.0,91,-99.99,,,0.00,weatherlink.com 1.10,2013-07-17 04:16:00,
2013-07-16 23:31:00,72.5,70.0,30.32,SE,144,0.0,-999.0,92,-99.99,,,0.00,weatherlink.com 1.10,2013-07-17 04:31:00,
2013-07-16 23:46:00,72.3,70.0,30.31,SE,144,0.0,-999.0,93,-99.99,,,0.00,weatherlink.com 1.10,2013-07-17 04:46:00,